Kelsey, Texas
Current Conditions -  °F | °C
As of 4:15 PM on Friday 31 Oct 2014 (Local Time) from KOSA Reporting Station
Scattered Clouds Scattered Clouds  
Wind Chill: 65°   Ceiling: Unl
Heat Index: 65°   Visibility: 10mi
Dew Point: 41°   Wind: 13mph
Humidity: 42%   Direction: 340°NNW
Pressure: 30.26"   Gusts: 17mph
Location:  32.7353°N, 94.9492°W
Report Text: KOSA 312115Z AUTO 34011G15KT 10SM SCT049 18/05 A3026 RMK AO1 T01820049
Loading
Personal Weather Stations






























Interactive Weather Map
Tropical Storm Tracking
New forecast layout! Learn more

10-Day Weather Forecast

Advertisements
Track Severe Weather on mobile